Time;durP1;ratioP1;P1;durP2;ratioP2;P2;SDS_P1;SDS_P2;PMS_P1;PMS_P2;Temp;Humidity;BMP_temperature;BMP_pressure;BME280_temperature;BME280_humidity;BME280_pressure;Samples;Min_cycle;Max_cycle;Signal;HPM_P1;HPM_P2
2023/05/09 00:01:17;;;;;;;24.10;12.20;;;14.20;1.00;;;;;;4971155;28;20423;-54
2023/05/09 00:03:42;;;;;;;23.38;11.75;;;14.20;1.00;;;;;;4971546;28;20381;-54
2023/05/09 00:06:10;;;;;;;25.80;13.27;;;14.20;1.00;;;;;;4971882;28;20404;-54
2023/05/09 00:08:36;;;;;;;24.70;12.57;;;14.20;1.00;;;;;;4971988;28;20384;-54
2023/05/09 00:11:02;;;;;;;23.55;11.85;;;14.30;1.00;;;;;;4971578;28;20392;-54
2023/05/09 00:13:28;;;;;;;21.53;11.40;;;14.30;1.00;;;;;;4970873;28;20805;-54
2023/05/09 00:15:56;;;;;;;22.63;11.32;;;14.40;1.00;;;;;;4971658;28;20392;-54
2023/05/09 00:18:22;;;;;;;23.77;12.98;;;14.50;1.00;;;;;;4971439;28;20387;-54
2023/05/09 00:20:48;;;;;;;23.92;12.68;;;14.70;1.00;;;;;;4971787;28;20392;-54
2023/05/09 00:23:14;;;;;;;26.75;13.00;;;14.70;1.00;;;;;;4971095;28;20388;-54
2023/05/09 00:25:39;;;;;;;26.33;12.40;;;14.70;1.00;;;;;;4971536;28;20419;-54
2023/05/09 00:28:05;;;;;;;23.15;11.68;;;14.70;1.00;;;;;;4971431;28;20762;-54
2023/05/09 00:30:31;;;;;;;22.40;12.60;;;14.80;1.00;;;;;;4953099;28;20417;-54
2023/05/09 00:32:56;;;;;;;26.30;12.80;;;14.80;1.00;;;;;;4952023;29;20401;-53
2023/05/09 00:35:22;;;;;;;26.75;13.68;;;14.80;1.00;;;;;;4951686;29;20812;-53
2023/05/09 00:37:47;;;;;;;23.37;12.43;;;14.20;1.00;;;;;;4952292;29;20398;-53
2023/05/09 00:40:13;;;;;;;21.80;11.47;;;14.80;1.00;;;;;;4951078;29;20382;-54
2023/05/09 00:42:39;;;;;;;24.98;12.88;;;14.80;1.00;;;;;;4951773;29;20785;-54
2023/05/09 00:45:06;;;;;;;21.70;11.00;;;14.80;1.00;;;;;;4951795;29;20497;-53
2023/05/09 00:47:32;;;;;;;23.90;12.27;;;15.00;1.00;;;;;;4951020;29;20424;-54
2023/05/09 00:49:58;;;;;;;26.48;13.00;;;15.00;1.00;;;;;;4951689;29;20469;-53
2023/05/09 00:52:24;;;;;;;23.03;12.07;;;14.90;1.00;;;;;;4951399;29;20469;-53
2023/05/09 00:54:54;;;;;;;24.05;12.30;;;15.00;1.00;;;;;;4951736;29;20494;-53
2023/05/09 00:57:21;;;;;;;28.88;14.45;;;15.00;1.00;;;;;;4950947;29;20744;-53
2023/05/09 00:59:47;;;;;;;29.48;15.13;;;15.10;1.00;;;;;;4951790;29;20494;-53
2023/05/09 01:02:13;;;;;;;26.77;13.45;;;15.20;1.00;;;;;;4951116;29;20389;-53
2023/05/09 01:04:40;;;;;;;27.55;13.98;;;15.20;1.00;;;;;;4951429;29;20409;-54
2023/05/09 01:07:29;;;;;;;30.25;15.23;;;15.10;1.00;;;;;;4951472;29;20894;-53
2023/05/09 01:10:05;;;;;;;25.13;13.48;;;15.10;1.00;;;;;;4951406;29;20933;-53
2023/05/09 01:13:04;;;;;;;28.52;13.63;;;15.10;1.00;;;;;;4950892;29;20961;-53
2023/05/09 01:15:39;;;;;;;22.60;12.20;;;15.00;1.00;;;;;;4950677;29;20806;-53
2023/05/09 01:18:42;;;;;;;26.23;12.60;;;15.00;1.00;;;;;;4951638;29;20576;-53
2023/05/09 01:21:13;;;;;;;26.30;13.35;;;15.00;1.00;;;;;;4927746;29;20402;-53
2023/05/09 01:24:00;;;;;;;28.23;12.55;;;14.90;1.00;;;;;;4951664;29;20425;-54
2023/05/09 01:26:53;;;;;;;24.60;13.00;;;14.90;1.00;;;;;;4950645;29;20547;-53
2023/05/09 01:29:38;;;;;;;25.08;12.48;;;14.80;1.00;;;;;;4958241;28;20461;-53
2023/05/09 01:32:22;;;;;;;26.70;13.48;;;14.90;1.00;;;;;;4970841;28;20392;-54
2023/05/09 01:34:50;;;;;;;26.50;13.38;;;14.80;1.00;;;;;;4970529;28;20390;-54
2023/05/09 01:37:21;;;;;;;25.85;12.68;;;14.80;1.00;;;;;;4969620;28;20816;-53
2023/05/09 01:39:49;;;;;;;23.55;12.63;;;14.80;1.00;;;;;;4970700;28;20425;-54
2023/05/09 01:42:17;;;;;;;26.17;12.90;;;14.90;1.00;;;;;;4952576;28;20447;-53
2023/05/09 01:44:45;;;;;;;27.88;14.73;;;15.00;1.00;;;;;;4970511;28;20456;-54
2023/05/09 01:47:11;;;;;;;24.33;13.43;;;15.00;1.00;;;;;;4970282;28;20437;-54
2023/05/09 01:49:40;;;;;;;26.90;14.38;;;15.00;1.00;;;;;;4969804;28;20395;-53
2023/05/09 01:52:10;;;;;;;29.95;14.82;;;14.90;1.00;;;;;;4970718;28;20418;-54
2023/05/09 01:54:38;;;;;;;36.00;16.63;;;14.40;1.00;;;;;;4970364;28;20386;-54
2023/05/09 01:57:06;;;;;;;29.75;15.02;;;15.20;1.00;;;;;;4970070;28;20388;-54
2023/05/09 01:59:33;;;;;;;29.40;15.70;;;15.30;1.00;;;;;;4969425;28;20403;-54
2023/05/09 02:02:00;;;;;;;31.02;14.95;;;15.30;1.00;;;;;;4970364;28;20397;-53
2023/05/09 02:04:27;;;;;;;32.50;17.27;;;15.30;1.00;;;;;;4969671;28;20982;-54
2023/05/09 02:06:54;;;;;;;34.53;16.73;;;15.20;1.00;;;;;;4969889;28;20447;-54
2023/05/09 02:09:20;;;;;;;32.90;16.10;;;15.20;1.00;;;;;;4969447;28;20384;-54
2023/05/09 02:11:46;;;;;;;33.97;16.98;;;15.10;1.00;;;;;;4970042;28;20407;-54
2023/05/09 02:14:12;;;;;;;35.17;16.93;;;15.10;1.00;;;;;;4970349;28;20861;-54
2023/05/09 02:16:38;;;;;;;29.52;15.70;;;15.00;1.00;;;;;;4973639;28;20444;-54
2023/05/09 02:19:04;;;;;;;31.55;15.05;;;15.00;1.00;;;;;;4973849;28;20383;-53
2023/05/09 02:21:30;;;;;;;29.35;15.20;;;14.90;1.00;;;;;;4972889;28;21287;-53
2023/05/09 02:23:56;;;;;;;30.40;15.93;;;14.80;1.00;;;;;;4973568;28;20400;-53
2023/05/09 02:26:23;;;;;;;30.38;15.30;;;14.80;1.00;;;;;;4972364;28;20385;-53
2023/05/09 02:28:49;;;;;;;27.95;15.85;;;14.70;1.00;;;;;;4973190;28;20491;-53
2023/05/09 02:31:17;;;;;;;32.53;16.17;;;14.70;1.00;;;;;;4973084;28;20395;-53
2023/05/09 02:33:45;;;;;;;30.05;16.27;;;14.80;1.00;;;;;;4973263;28;20392;-53
2023/05/09 02:36:12;;;;;;;34.65;16.83;;;14.80;1.00;;;;;;4972993;28;20394;-54
2023/05/09 02:38:37;;;;;;;32.38;16.33;;;14.90;1.00;;;;;;4972757;28;20485;-53
2023/05/09 02:41:03;;;;;;;35.53;17.47;;;14.80;1.00;;;;;;4973379;28;20467;-53
2023/05/09 02:43:28;;;;;;;33.65;15.57;;;14.80;1.00;;;;;;4972609;28;20399;-53
2023/05/09 02:45:54;;;;;;;35.13;16.00;;;14.80;1.00;;;;;;4973245;28;20940;-53
2023/05/09 02:48:20;;;;;;;35.07;17.13;;;14.80;1.00;;;;;;4972108;28;20404;-53
2023/05/09 02:50:45;;;;;;;34.20;16.95;;;14.70;1.00;;;;;;4972874;28;20738;-53
2023/05/09 02:53:11;;;;;;;31.25;15.85;;;14.70;1.00;;;;;;4973471;28;20459;-53
2023/05/09 02:55:37;;;;;;;32.40;17.03;;;14.70;1.00;;;;;;4972894;28;20746;-53
2023/05/09 02:58:02;;;;;;;35.08;17.73;;;14.70;1.00;;;;;;4972926;28;20427;-53
2023/05/09 03:00:28;;;;;;;34.23;16.90;;;14.60;1.00;;;;;;4972278;28;20388;-53
2023/05/09 03:02:54;;;;;;;33.60;18.20;;;14.60;1.00;;;;;;4972799;28;20871;-53
2023/05/09 03:05:20;;;;;;;32.37;16.83;;;14.50;1.00;;;;;;4971916;28;20778;-53
2023/05/09 03:07:46;;;;;;;36.92;17.90;;;14.30;1.00;;;;;;4972707;28;20403;-53
2023/05/09 03:10:11;;;;;;;34.77;17.50;;;14.30;1.00;;;;;;4972305;28;20873;-54
2023/05/09 03:12:38;;;;;;;38.25;19.15;;;14.30;1.00;;;;;;4972046;28;20384;-53
2023/05/09 03:15:05;;;;;;;34.53;17.48;;;14.20;1.00;;;;;;4973009;28;20389;-52
2023/05/09 03:17:31;;;;;;;35.42;17.13;;;14.30;1.00;;;;;;4972124;28;20401;-53
2023/05/09 03:19:56;;;;;;;35.17;18.10;;;14.30;1.00;;;;;;4972446;28;20466;-53
2023/05/09 03:22:22;;;;;;;33.95;17.10;;;14.30;1.00;;;;;;4972349;28;20388;-53
2023/05/09 03:24:48;;;;;;;34.43;17.00;;;14.30;1.00;;;;;;4972434;28;20474;-53
2023/05/09 03:27:13;;;;;;;36.37;17.57;;;14.30;1.00;;;;;;4971010;28;20404;-54
2023/05/09 03:29:39;;;;;;;35.33;18.42;;;14.30;1.00;;;;;;4972221;28;20894;-53
2023/05/09 03:32:05;;;;;;;33.47;17.27;;;14.30;1.00;;;;;;4972401;28;20447;-53
2023/05/09 03:34:30;;;;;;;33.97;17.25;;;14.30;1.00;;;;;;4971601;28;20399;-53
2023/05/09 03:36:56;;;;;;;33.38;17.30;;;14.30;1.00;;;;;;4972606;28;20431;-53
2023/05/09 03:39:21;;;;;;;35.27;18.20;;;14.10;1.00;;;;;;4971526;28;20397;-53
2023/05/09 03:41:48;;;;;;;31.38;16.95;;;14.10;1.00;;;;;;4972465;28;20396;-53
2023/05/09 03:44:13;;;;;;;32.60;15.77;;;14.00;1.00;;;;;;4971984;28;20408;-54
2023/05/09 03:46:39;;;;;;;36.13;16.67;;;14.10;1.00;;;;;;4971588;28;20399;-53
2023/05/09 03:49:05;;;;;;;31.07;15.87;;;14.20;1.00;;;;;;4971955;28;20798;-53
2023/05/09 03:51:31;;;;;;;31.27;16.02;;;14.20;1.00;;;;;;4971466;28;20395;-53
2023/05/09 03:53:57;;;;;;;30.92;16.38;;;14.30;1.00;;;;;;4972115;28;20411;-53
2023/05/09 03:56:22;;;;;;;31.60;17.30;;;14.30;1.00;;;;;;4971024;28;20853;-53
2023/05/09 03:58:48;;;;;;;35.38;17.27;;;14.30;1.00;;;;;;4972235;28;20408;-53
2023/05/09 04:01:14;;;;;;;33.40;16.37;;;14.20;1.00;;;;;;4971836;28;20426;-54
2023/05/09 04:03:40;;;;;;;33.08;15.32;;;14.30;1.00;;;;;;4971440;28;20388;-53
2023/05/09 04:06:06;;;;;;;34.70;16.95;;;14.20;1.00;;;;;;4971825;28;20419;-53
2023/05/09 04:08:32;;;;;;;31.00;15.87;;;14.40;1.00;;;;;;4971172;28;20401;-53
2023/05/09 04:10:58;;;;;;;30.90;16.00;;;14.50;1.00;;;;;;4971689;28;20426;-54
2023/05/09 04:13:23;;;;;;;29.03;15.73;;;14.40;1.00;;;;;;4970971;28;20681;-53
2023/05/09 04:15:50;;;;;;;31.27;16.33;;;14.50;1.00;;;;;;4971867;28;20387;-53
2023/05/09 04:18:15;;;;;;;33.22;16.45;;;14.50;1.00;;;;;;4970969;28;20392;-53
2023/05/09 04:20:41;;;;;;;31.97;16.40;;;14.60;1.00;;;;;;4971752;28;20385;-53
2023/05/09 04:23:07;;;;;;;30.43;15.50;;;14.60;1.00;;;;;;4971586;28;20388;-53
2023/05/09 04:25:34;;;;;;;33.70;16.38;;;14.70;1.00;;;;;;4970770;28;20416;-53
2023/05/09 04:28:00;;;;;;;32.97;16.75;;;14.70;1.00;;;;;;4971035;28;20455;-53
2023/05/09 04:30:27;;;;;;;34.25;17.80;;;14.70;1.00;;;;;;4970530;28;21081;-53
2023/05/09 04:32:54;;;;;;;35.67;17.10;;;14.70;1.00;;;;;;4971537;28;20397;-53
2023/05/09 04:35:21;;;;;;;31.87;17.20;;;14.60;1.00;;;;;;4970729;28;20597;-53
2023/05/09 04:37:47;;;;;;;38.10;16.13;;;14.60;1.00;;;;;;4970877;28;20539;-53
2023/05/09 04:40:13;;;;;;;30.55;16.33;;;14.70;1.00;;;;;;4971340;28;20411;-53
2023/05/09 04:42:39;;;;;;;35.28;16.63;;;14.60;1.00;;;;;;4971487;28;20387;-53
2023/05/09 04:45:06;;;;;;;38.72;17.73;;;14.70;1.00;;;;;;4971456;28;20499;-53
2023/05/09 04:47:31;;;;;;;35.08;16.40;;;14.70;1.00;;;;;;4970304;28;20388;-53
2023/05/09 04:49:57;;;;;;;30.47;16.33;;;14.70;1.00;;;;;;4971299;28;20384;-53
2023/05/09 04:52:23;;;;;;;33.35;16.17;;;14.70;1.00;;;;;;4970479;28;20393;-53
2023/05/09 04:54:49;;;;;;;30.80;15.93;;;14.80;1.00;;;;;;4971987;28;20860;-53
2023/05/09 04:57:15;;;;;;;30.38;16.60;;;14.80;1.00;;;;;;4970245;28;20860;-54
2023/05/09 04:59:41;;;;;;;32.78;16.25;;;14.90;1.00;;;;;;4970890;28;20396;-53
2023/05/09 05:02:06;;;;;;;32.50;17.00;;;14.90;1.00;;;;;;4971212;28;20384;-53
2023/05/09 05:04:32;;;;;;;36.40;18.03;;;14.90;1.00;;;;;;4970173;28;20536;-53
2023/05/09 05:06:58;;;;;;;34.78;17.88;;;14.90;1.00;;;;;;4971116;28;20430;-53
2023/05/09 05:09:23;;;;;;;31.40;15.40;;;15.00;1.00;;;;;;4970409;28;20459;-53
2023/05/09 05:11:49;;;;;;;33.03;16.63;;;14.90;1.00;;;;;;4970643;28;20388;-53
2023/05/09 05:14:14;;;;;;;34.42;16.95;;;14.90;1.00;;;;;;4968170;28;20412;-54
2023/05/09 05:16:40;;;;;;;35.25;17.10;;;14.90;1.00;;;;;;4969831;28;20483;-53
2023/05/09 05:19:05;;;;;;;35.30;16.30;;;14.80;1.00;;;;;;4951229;29;20398;-53
2023/05/09 05:21:31;;;;;;;35.13;17.73;;;14.80;1.00;;;;;;4958599;28;20501;-53
2023/05/09 05:23:57;;;;;;;35.60;17.50;;;14.90;1.00;;;;;;4968498;28;20715;-53
2023/05/09 05:26:24;;;;;;;33.17;17.10;;;15.00;1.00;;;;;;4969796;28;20463;-53
2023/05/09 05:28:54;;;;;;;30.67;16.67;;;15.10;1.00;;;;;;4970636;28;20504;-53
2023/05/09 05:31:20;;;;;;;32.13;16.93;;;15.30;1.00;;;;;;4966875;28;20417;-54
2023/05/09 05:33:46;;;;;;;31.35;15.95;;;15.20;1.00;;;;;;4951654;29;20394;-53
2023/05/09 05:36:11;;;;;;;33.73;17.33;;;15.30;1.00;;;;;;4951535;29;20741;-53
2023/05/09 05:38:37;;;;;;;31.27;15.52;;;15.30;1.00;;;;;;4950636;29;20420;-53
2023/05/09 05:41:03;;;;;;;35.00;17.27;;;15.20;1.00;;;;;;4956808;28;20475;-53
2023/05/09 05:43:29;;;;;;;31.48;17.13;;;15.30;1.00;;;;;;4969589;28;20396;-53
2023/05/09 05:45:55;;;;;;;32.63;16.73;;;15.50;1.00;;;;;;4969972;28;20416;-53
2023/05/09 05:48:20;;;;;;;30.05;15.23;;;15.90;1.00;;;;;;4969453;28;20396;-53
2023/05/09 05:50:46;;;;;;;31.70;16.03;;;16.10;1.00;;;;;;4974120;28;20420;-53
2023/05/09 05:53:12;;;;;;;30.02;16.60;;;16.20;1.00;;;;;;4974327;28;20392;-53
2023/05/09 05:55:38;;;;;;;30.38;15.88;;;16.10;99.90;;;;;;4973771;28;20388;-53
2023/05/09 05:58:04;;;;;;;31.33;15.83;;;16.00;1.00;;;;;;4974291;28;20683;-53
2023/05/09 06:00:29;;;;;;;34.47;16.30;;;16.00;1.00;;;;;;4973499;28;20404;-53
2023/05/09 06:02:55;;;;;;;30.17;15.75;;;16.00;1.00;;;;;;4974445;28;20392;-53
2023/05/09 06:05:20;;;;;;;33.15;16.70;;;16.10;1.00;;;;;;4964376;28;20414;-53
2023/05/09 06:07:46;;;;;;;29.10;15.50;;;16.30;1.00;;;;;;4965450;28;20462;-53
2023/05/09 06:10:14;;;;;;;30.27;14.57;;;16.60;99.90;;;;;;4962073;28;20413;-54
2023/05/09 06:12:40;;;;;;;30.73;15.45;;;16.60;99.90;;;;;;4953960;29;20545;-53
2023/05/09 06:15:06;;;;;;;29.33;16.13;;;16.80;99.90;;;;;;4970855;28;20479;-53
2023/05/09 06:17:32;;;;;;;28.70;14.52;;;17.10;99.90;;;;;;4972965;28;20388;-54
2023/05/09 06:19:58;;;;;;;29.45;15.20;;;17.60;99.90;;;;;;4974206;28;20385;-54
2023/05/09 06:22:23;;;;;;;30.97;15.67;;;18.00;99.90;;;;;;4966564;28;20386;-54
2023/05/09 06:24:49;;;;;;;25.30;13.63;;;18.50;1.00;;;;;;4954451;29;20425;-54
2023/05/09 06:27:15;;;;;;;26.65;14.07;;;19.00;99.90;;;;;;4954328;29;20401;-54
2023/05/09 06:29:40;;;;;;;24.40;13.35;;;19.60;1.00;;;;;;4953441;29;20441;-54
2023/05/09 06:32:06;;;;;;;26.40;13.20;;;19.50;87.90;;;;;;4954150;29;20406;-54
2023/05/09 06:34:32;;;;;;;25.60;14.47;;;19.30;1.00;;;;;;4953440;29;20826;-54
2023/05/09 06:36:57;;;;;;;26.20;14.43;;;19.00;99.90;;;;;;4954058;29;20409;-54
2023/05/09 06:39:24;;;;;;;26.92;14.98;;;18.90;1.00;;;;;;4959862;28;20431;-54
2023/05/09 06:41:50;;;;;;;26.58;14.23;;;18.60;1.00;;;;;;4973259;28;20424;-54
2023/05/09 06:44:15;;;;;;;30.03;15.80;;;17.60;99.90;;;;;;4973483;28;20439;-54
2023/05/09 06:46:41;;;;;;;24.48;14.02;;;18.20;99.90;;;;;;4973177;28;20447;-54
2023/05/09 06:49:06;;;;;;;28.38;15.10;;;18.30;99.90;;;;;;4973485;28;20385;-53
2023/05/09 06:51:32;;;;;;;27.20;14.90;;;18.40;99.90;;;;;;4972682;28;20541;-54
2023/05/09 06:53:58;;;;;;;27.77;15.20;;;18.60;66.10;;;;;;4973512;28;20392;-54
2023/05/09 06:56:24;;;;;;;26.80;15.07;;;18.90;1.00;;;;;;4972466;28;20389;-54
2023/05/09 06:58:50;;;;;;;28.02;14.35;;;19.00;1.00;;;;;;4972774;28;20488;-53
2023/05/09 07:01:16;;;;;;;24.60;14.00;;;19.20;99.90;;;;;;4972640;28;20753;-54
2023/05/09 07:03:42;;;;;;;25.57;13.97;;;19.10;99.90;;;;;;4972887;28;20858;-54
2023/05/09 07:06:08;;;;;;;27.55;15.52;;;19.30;64.80;;;;;;4972359;28;20415;-54
2023/05/09 07:08:34;;;;;;;24.43;13.33;;;19.50;1.00;;;;;;4972411;28;20862;-54
2023/05/09 07:10:59;;;;;;;27.20;14.77;;;19.90;1.00;;;;;;4972366;28;20400;-54
2023/05/09 07:13:25;;;;;;;22.58;12.95;;;20.00;1.00;;;;;;4967054;28;20512;-54
2023/05/09 07:15:50;;;;;;;27.53;14.40;;;19.90;99.90;;;;;;4953438;29;20421;-54
2023/05/09 07:18:16;;;;;;;25.13;14.13;;;20.00;99.90;;;;;;4953331;29;20421;-55
2023/05/09 07:20:42;;;;;;;26.87;14.30;;;20.20;99.90;;;;;;4953338;29;20749;-55
2023/05/09 07:23:08;;;;;;;28.80;14.90;;;20.40;99.90;;;;;;4953535;29;20398;-54
2023/05/09 07:25:33;;;;;;;23.83;13.38;;;20.60;99.90;;;;;;4952893;29;20485;-54
2023/05/09 07:27:59;;;;;;;24.17;13.32;;;20.80;99.90;;;;;;4952947;29;20952;-54
2023/05/09 07:30:24;;;;;;;21.53;12.90;;;21.20;99.90;;;;;;4952475;29;20448;-55
2023/05/09 07:32:50;;;;;;;24.07;12.70;;;21.60;29.70;;;;;;4953553;29;20393;-54
2023/05/09 07:35:16;;;;;;;24.17;13.65;;;22.00;1.00;;;;;;4953156;29;20398;-54
2023/05/09 07:37:42;;;;;;;22.50;12.23;;;22.00;1.00;;;;;;4952876;29;20389;-54
2023/05/09 07:40:08;;;;;;;24.23;13.50;;;22.00;1.00;;;;;;4953195;29;20386;-55
2023/05/09 07:42:34;;;;;;;23.80;13.52;;;22.30;1.00;;;;;;4952431;29;20481;-54
2023/05/09 07:44:59;;;;;;;27.23;14.20;;;22.10;1.00;;;;;;4952770;29;20484;-55
2023/05/09 07:47:25;;;;;;;22.00;12.80;;;22.50;1.00;;;;;;4951902;29;20751;-54
2023/05/09 07:49:51;;;;;;;23.30;12.37;;;23.20;1.00;;;;;;4953003;29;20390;-54
2023/05/09 07:52:17;;;;;;;24.40;13.25;;;23.20;1.00;;;;;;4952825;29;20413;-55
2023/05/09 07:54:43;;;;;;;24.35;12.70;;;22.90;1.00;;;;;;4952289;29;20480;-55
2023/05/09 07:57:09;;;;;;;23.27;12.50;;;23.60;1.00;;;;;;4952509;29;20408;-55
2023/05/09 07:59:35;;;;;;;24.33;12.88;;;23.70;1.00;;;;;;4951761;29;20834;-55
2023/05/09 08:02:01;;;;;;;22.93;12.63;;;24.40;1.00;;;;;;4952849;29;20469;-55
2023/05/09 08:04:26;;;;;;;23.87;13.00;;;24.90;1.00;;;;;;4951816;29;20421;-55
2023/05/09 08:06:52;;;;;;;23.17;11.90;;;25.60;1.00;;;;;;4952574;29;20398;-55
2023/05/09 08:09:18;;;;;;;22.20;13.13;;;26.10;1.00;;;;;;4952531;29;20421;-55
2023/05/09 08:11:44;;;;;;;19.70;13.30;;;26.90;1.00;;;;;;4951287;28;20409;-55
2023/05/09 08:14:09;;;;;;;21.02;14.23;;;27.50;1.00;;;;;;4963425;28;20388;-55
2023/05/09 08:16:35;;;;;;;22.67;15.00;;;27.00;1.00;;;;;;4971475;28;20822;-55
2023/05/09 08:19:01;;;;;;;21.65;12.93;;;26.10;1.00;;;;;;4971552;28;20425;-55
2023/05/09 08:21:27;;;;;;;21.25;13.13;;;24.90;99.90;;;;;;4971163;28;20443;-55
2023/05/09 08:23:54;;;;;;;23.10;12.80;;;24.40;99.90;;;;;;4971967;28;20411;-55
2023/05/09 08:26:21;;;;;;;22.55;12.95;;;24.30;1.00;;;;;;4971046;28;20432;-56
2023/05/09 08:28:48;;;;;;;24.20;14.70;;;25.20;1.00;;;;;;4971651;28;20438;-55
2023/05/09 08:31:14;;;;;;;22.50;13.63;;;26.10;1.00;;;;;;4971439;28;20423;-55
2023/05/09 08:33:39;;;;;;;19.95;13.35;;;26.60;1.00;;;;;;4970816;28;20870;-55
2023/05/09 08:36:05;;;;;;;24.80;15.38;;;27.20;1.00;;;;;;4954547;28;20408;-55
2023/05/09 08:38:31;;;;;;;21.42;15.10;;;28.20;1.00;;;;;;4970717;28;20399;-55
2023/05/09 08:41:00;;;;;;;21.48;14.73;;;28.40;99.90;;;;;;4971551;28;20399;-56
2023/05/09 08:43:27;;;;;;;21.30;16.30;;;28.60;99.90;;;;;;4970738;28;20399;-56
2023/05/09 08:46:05;;;;;;;21.20;16.90;;;29.50;99.90;;;;;;4971448;28;20471;-56
2023/05/09 08:48:36;;;;;;;22.08;17.48;;;29.80;99.90;;;;;;4970583;28;20392;-56
2023/05/09 08:51:03;;;;;;;21.45;16.75;;;29.80;99.90;;;;;;4971200;28;20427;-56
2023/05/09 08:53:30;;;;;;;20.20;16.95;;;29.90;99.90;;;;;;4970501;28;20392;-56
2023/05/09 08:56:01;;;;;;;18.58;14.80;;;29.50;99.90;;;;;;4971038;28;20396;-56
2023/05/09 08:58:27;;;;;;;19.90;15.88;;;28.90;99.90;;;;;;4970269;28;20482;-56
2023/05/09 09:00:54;;;;;;;20.00;15.00;;;28.20;99.90;;;;;;4970897;28;20874;-56
2023/05/09 09:03:20;;;;;;;17.88;13.45;;;27.90;99.90;;;;;;4971102;28;20483;-56
2023/05/09 09:05:46;;;;;;;20.27;14.15;;;28.10;99.90;;;;;;4970855;28;20901;-56
2023/05/09 09:08:13;;;;;;;18.58;13.45;;;28.30;99.90;;;;;;4970748;28;20392;-56
2023/05/09 09:10:42;;;;;;;20.93;15.27;;;28.90;99.90;;;;;;4970043;28;20428;-56
2023/05/09 09:13:11;;;;;;;17.45;13.23;;;28.40;99.90;;;;;;4967589;28;20440;-56
2023/05/09 09:15:37;;;;;;;18.10;13.90;;;27.80;99.90;;;;;;4950847;29;20394;-56
2023/05/09 09:18:10;;;;;;;18.00;13.43;;;27.90;99.90;;;;;;4951495;29;20398;-56
2023/05/09 09:20:41;;;;;;;18.17;12.50;;;27.90;99.90;;;;;;4934887;29;20389;-56
2023/05/09 09:23:11;;;;;;;17.08;12.40;;;28.10;99.90;;;;;;4952509;28;20814;-56
2023/05/09 09:25:37;;;;;;;19.75;12.40;;;28.00;99.90;;;;;;4954960;29;20416;-56
2023/05/09 09:28:03;;;;;;;17.73;12.10;;;27.90;99.90;;;;;;4955306;29;20401;-56
2023/05/09 09:30:29;;;;;;;18.83;12.30;;;27.90;99.90;;;;;;4954828;29;20437;-56
2023/05/09 09:32:58;;;;;;;16.90;12.00;;;26.90;99.90;;;;;;4955254;29;20863;-56
2023/05/09 09:35:23;;;;;;;19.42;11.60;;;26.80;99.90;;;;;;4954562;29;20481;-56
2023/05/09 09:37:57;;;;;;;19.17;11.65;;;25.80;99.90;;;;;;4955162;29;20491;-55
2023/05/09 09:40:23;;;;;;;20.60;11.80;;;25.10;99.90;;;;;;4954800;29;20414;-55
2023/05/09 09:42:51;;;;;;;19.88;11.23;;;24.50;99.90;;;;;;4955136;29;20396;-55
2023/05/09 09:45:20;;;;;;;17.73;10.50;;;24.10;99.90;;;;;;4955780;29;20530;-55
2023/05/09 09:47:47;;;;;;;20.10;10.90;;;23.90;99.90;;;;;;4954999;29;20805;-55
2023/05/09 09:50:14;;;;;;;17.58;9.65;;;23.90;99.90;;;;;;4954729;29;20772;-55
2023/05/09 09:52:50;;;;;;;16.67;9.75;;;24.10;99.90;;;;;;4954220;29;20385;-55
2023/05/09 09:55:17;;;;;;;17.27;10.00;;;24.10;99.90;;;;;;4954863;29;20406;-55
2023/05/09 09:57:44;;;;;;;17.23;9.10;;;24.00;99.90;;;;;;4953680;29;20402;-56
2023/05/09 10:00:11;;;;;;;16.75;9.30;;;24.70;99.90;;;;;;4954759;29;20398;-56
2023/05/09 10:02:54;;;;;;;16.50;9.90;;;25.90;99.90;;;;;;4953942;29;20401;-56
2023/05/09 10:05:25;;;;;;;13.70;8.70;;;27.40;99.90;;;;;;4954276;29;20409;-56
2023/05/09 10:07:57;;;;;;;14.48;9.30;;;28.20;99.90;;;;;;4954358;29;20402;-56
2023/05/09 10:10:30;;;;;;;16.13;10.45;;;28.70;99.90;;;;;;4953807;29;20452;-56
2023/05/09 10:12:58;;;;;;;16.42;11.88;;;28.90;99.90;;;;;;4955664;28;20393;-56
2023/05/09 10:15:25;;;;;;;15.43;10.50;;;29.10;99.90;;;;;;4973101;28;20866;-56
2023/05/09 10:17:54;;;;;;;18.90;12.13;;;28.40;99.90;;;;;;4973941;28;20384;-56
2023/05/09 10:20:20;;;;;;;14.90;10.95;;;27.60;99.90;;;;;;4973390;28;20870;-56
2023/05/09 10:22:47;;;;;;;17.85;11.73;;;27.90;99.90;;;;;;4973003;28;20519;-56
2023/05/09 10:25:21;;;;;;;16.73;10.38;;;27.60;99.90;;;;;;4973681;28;20499;-56
2023/05/09 10:27:48;;;;;;;17.00;10.45;;;26.90;99.90;;;;;;4973422;28;20877;-56
2023/05/09 10:30:29;;;;;;;15.07;8.60;;;26.30;99.90;;;;;;4973867;28;20478;-56
2023/05/09 10:33:06;;;;;;;12.77;8.10;;;25.90;99.90;;;;;;4973793;28;20893;-56
2023/05/09 10:35:39;;;;;;;13.93;8.30;;;26.00;99.90;;;;;;4972244;28;20407;-56
2023/05/09 10:38:06;;;;;;;15.93;9.13;;;25.90;99.90;;;;;;4973680;28;20388;-56
2023/05/09 10:40:33;;;;;;;14.23;7.90;;;25.60;99.90;;;;;;4972781;28;20384;-56
2023/05/09 10:42:59;;;;;;;12.02;7.70;;;25.60;99.90;;;;;;4973765;28;20399;-56
2023/05/09 10:45:25;;;;;;;13.05;8.10;;;25.20;99.90;;;;;;4973040;28;20409;-56
2023/05/09 10:47:52;;;;;;;13.05;7.70;;;24.70;99.90;;;;;;4973636;28;20384;-56
2023/05/09 10:50:20;;;;;;;13.90;7.95;;;24.60;99.90;;;;;;4973760;28;20412;-55
2023/05/09 10:53:03;;;;;;;16.15;8.07;;;24.70;99.90;;;;;;4972516;28;20389;-55
2023/05/09 10:55:51;;;;;;;15.60;8.00;;;24.80;99.90;;;;;;4972455;28;20395;-56
2023/05/09 10:58:21;;;;;;;14.70;7.80;;;24.80;99.90;;;;;;4973200;28;20470;-56
2023/05/09 11:00:48;;;;;;;14.70;7.50;;;24.50;99.90;;;;;;4973677;28;20393;-56
2023/05/09 11:03:14;;;;;;;12.95;6.60;;;24.60;99.90;;;;;;4972975;28;20862;-56
2023/05/09 11:05:40;;;;;;;14.20;8.00;;;24.80;99.90;;;;;;4972220;28;20656;-56
2023/05/09 11:08:29;;;;;;;14.40;8.13;;;25.00;99.90;;;;;;4973327;28;20389;-55
2023/05/09 11:11:05;;;;;;;15.70;8.17;;;24.60;99.90;;;;;;4967547;28;20886;-56
2023/05/09 11:13:36;;;;;;;14.97;7.50;;;24.80;99.90;;;;;;4966498;28;20485;-56
2023/05/09 11:16:02;;;;;;;14.48;7.68;;;24.90;99.90;;;;;;4953770;29;20390;-56
2023/05/09 11:18:28;;;;;;;14.77;8.13;;;24.80;99.90;;;;;;4952840;29;20413;-56
2023/05/09 11:20:55;;;;;;;14.52;8.75;;;24.70;99.90;;;;;;4953331;29;20394;-56
2023/05/09 11:23:25;;;;;;;16.40;8.80;;;24.80;99.90;;;;;;4953460;29;20421;-56
2023/05/09 11:25:51;;;;;;;15.30;8.40;;;24.80;99.90;;;;;;4953174;29;20429;-56
2023/05/09 11:28:28;;;;;;;15.82;8.60;;;24.60;99.90;;;;;;4953644;29;20441;-56
2023/05/09 11:31:15;;;;;;;15.57;8.88;;;24.50;99.90;;;;;;4953922;29;20425;-57
2023/05/09 11:33:43;;;;;;;17.02;9.65;;;23.80;99.90;;;;;;4952653;29;21207;-56
2023/05/09 11:36:24;;;;;;;15.10;8.80;;;23.90;99.90;;;;;;4953464;29;20400;-56
2023/05/09 11:39:03;;;;;;;15.15;8.40;;;24.20;99.90;;;;;;4953471;29;20457;-56
2023/05/09 11:41:29;;;;;;;18.17;8.90;;;24.40;99.90;;;;;;4952821;29;20378;-56
2023/05/09 11:43:58;;;;;;;16.85;9.50;;;24.30;99.90;;;;;;4952693;29;20390;-56
2023/05/09 11:46:24;;;;;;;15.70;9.10;;;24.40;99.90;;;;;;4952069;28;20447;-57
2023/05/09 11:48:49;;;;;;;17.08;8.05;;;24.70;99.90;;;;;;4952707;29;20407;-56
2023/05/09 11:51:17;;;;;;;19.40;9.23;;;25.00;99.90;;;;;;4953124;29;20481;-56
2023/05/09 11:53:45;;;;;;;15.90;9.15;;;24.80;99.90;;;;;;4952174;29;20401;-56
2023/05/09 11:56:12;;;;;;;17.25;8.25;;;24.80;99.90;;;;;;4952797;29;20390;-56
2023/05/09 11:58:39;;;;;;;15.73;8.27;;;24.50;99.90;;;;;;4951865;29;20461;-56
2023/05/09 12:01:05;;;;;;;15.60;8.02;;;24.40;99.90;;;;;;4952625;29;20427;-56
2023/05/09 12:03:32;;;;;;;14.93;8.30;;;24.50;99.90;;;;;;4951812;29;20397;-56
2023/05/09 12:05:57;;;;;;;15.27;7.95;;;24.80;99.90;;;;;;4952601;29;20414;-56
2023/05/09 12:08:24;;;;;;;14.60;7.80;;;24.80;99.90;;;;;;4951956;29;20402;-56
2023/05/09 12:10:50;;;;;;;13.35;7.13;;;24.40;99.90;;;;;;4952683;29;20398;-56
2023/05/09 12:13:18;;;;;;;13.20;6.30;;;24.30;99.90;;;;;;4956614;28;20396;-56
2023/05/09 12:15:43;;;;;;;13.18;6.68;;;24.30;99.90;;;;;;4971186;28;20455;-56
2023/05/09 12:18:09;;;;;;;12.70;6.65;;;24.30;99.90;;;;;;4971982;28;20402;-56
2023/05/09 12:20:51;;;;;;;12.83;6.60;;;24.30;99.90;;;;;;4970801;28;20419;-56
2023/05/09 12:23:17;;;;;;;12.38;6.22;;;23.90;99.90;;;;;;4971487;28;20391;-56
2023/05/09 12:25:47;;;;;;;13.18;6.38;;;23.90;99.90;;;;;;4970751;28;20442;-56
2023/05/09 12:28:14;;;;;;;10.63;5.45;;;24.10;99.90;;;;;;4971548;28;20511;-56
2023/05/09 12:30:40;;;;;;;11.63;5.70;;;24.20;99.90;;;;;;4970238;28;20774;-56
2023/05/09 12:33:09;;;;;;;11.70;5.80;;;24.20;99.90;;;;;;4971471;28;20383;-56
2023/05/09 12:35:43;;;;;;;10.68;5.25;;;24.50;99.90;;;;;;4970798;28;20404;-56
2023/05/09 12:38:14;;;;;;;9.90;4.95;;;24.40;99.90;;;;;;4971527;28;20411;-56